sensor_id;sensor_type;location;lat;lon;timestamp;temperature;humidity
82001;SHT30;71522;50.870;3.524;2023-12-14T00:01:54;8.52;89.38
82001;SHT30;71522;50.870;3.524;2023-12-14T00:04:32;8.42;89.60
82001;SHT30;71522;50.870;3.524;2023-12-14T00:06:58;8.51;89.33
82001;SHT30;71522;50.870;3.524;2023-12-14T00:09:24;8.49;89.45
82001;SHT30;71522;50.870;3.524;2023-12-14T00:11:50;8.47;89.61
82001;SHT30;71522;50.870;3.524;2023-12-14T00:14:21;8.48;89.57
82001;SHT30;71522;50.870;3.524;2023-12-14T00:16:47;8.49;89.65
82001;SHT30;71522;50.870;3.524;2023-12-14T00:19:14;8.51;89.56
82001;SHT30;71522;50.870;3.524;2023-12-14T00:22:04;8.45;89.67
82001;SHT30;71522;50.870;3.524;2023-12-14T00:24:36;8.47;89.68
82001;SHT30;71522;50.870;3.524;2023-12-14T00:27:05;8.45;89.74
82001;SHT30;71522;50.870;3.524;2023-12-14T00:29:32;8.42;89.94
82001;SHT30;71522;50.870;3.524;2023-12-14T00:32:02;8.48;89.80
82001;SHT30;71522;50.870;3.524;2023-12-14T00:34:30;8.44;89.81
82001;SHT30;71522;50.870;3.524;2023-12-14T00:36:56;8.48;89.82
82001;SHT30;71522;50.870;3.524;2023-12-14T00:39:23;8.44;89.98
82001;SHT30;71522;50.870;3.524;2023-12-14T00:41:49;8.47;89.90
82001;SHT30;71522;50.870;3.524;2023-12-14T00:44:17;8.45;90.00
82001;SHT30;71522;50.870;3.524;2023-12-14T00:46:43;8.45;89.98
82001;SHT30;71522;50.870;3.524;2023-12-14T00:49:11;8.44;90.22
82001;SHT30;71522;50.870;3.524;2023-12-14T00:51:38;8.48;90.13
82001;SHT30;71522;50.870;3.524;2023-12-14T00:54:13;8.44;90.12
82001;SHT30;71522;50.870;3.524;2023-12-14T00:56:52;8.42;90.06
82001;SHT30;71522;50.870;3.524;2023-12-14T00:59:18;8.44;90.04
82001;SHT30;71522;50.870;3.524;2023-12-14T01:02:04;8.49;89.91
82001;SHT30;71522;50.870;3.524;2023-12-14T01:04:33;8.41;90.01
82001;SHT30;71522;50.870;3.524;2023-12-14T01:06:58;8.34;90.12
82001;SHT30;71522;50.870;3.524;2023-12-14T01:09:27;8.21;90.55
82001;SHT30;71522;50.870;3.524;2023-12-14T01:11:53;8.14;90.73
82001;SHT30;71522;50.870;3.524;2023-12-14T01:14:23;8.09;90.95
82001;SHT30;71522;50.870;3.524;2023-12-14T01:16:55;8.03;91.15
82001;SHT30;71522;50.870;3.524;2023-12-14T01:19:21;8.01;91.15
82001;SHT30;71522;50.870;3.524;2023-12-14T01:21:52;7.96;91.15
82001;SHT30;71522;50.870;3.524;2023-12-14T01:24:19;7.96;91.11
82001;SHT30;71522;50.870;3.524;2023-12-14T01:26:48;7.89;91.02
82001;SHT30;71522;50.870;3.524;2023-12-14T01:29:14;7.90;90.58
82001;SHT30;71522;50.870;3.524;2023-12-14T01:31:41;7.94;90.19
82001;SHT30;71522;50.870;3.524;2023-12-14T01:34:07;7.85;89.84
82001;SHT30;71522;50.870;3.524;2023-12-14T01:36:42;7.82;89.82
82001;SHT30;71522;50.870;3.524;2023-12-14T01:39:13;7.79;89.68
82001;SHT30;71522;50.870;3.524;2023-12-14T01:41:44;7.79;89.53
82001;SHT30;71522;50.870;3.524;2023-12-14T01:44:34;7.71;89.61
82001;SHT30;71522;50.870;3.524;2023-12-14T01:47:13;7.83;89.53
82001;SHT30;71522;50.870;3.524;2023-12-14T01:49:46;7.80;89.48
82001;SHT30;71522;50.870;3.524;2023-12-14T01:52:12;7.78;89.34
82001;SHT30;71522;50.870;3.524;2023-12-14T01:54:37;7.71;89.18
82001;SHT30;71522;50.870;3.524;2023-12-14T01:57:21;7.61;89.07
82001;SHT30;71522;50.870;3.524;2023-12-14T02:00:06;7.55;88.67
82001;SHT30;71522;50.870;3.524;2023-12-14T02:02:32;7.45;88.53
82001;SHT30;71522;50.870;3.524;2023-12-14T02:05:18;7.45;88.20
82001;SHT30;71522;50.870;3.524;2023-12-14T02:07:54;7.51;88.15
82001;SHT30;71522;50.870;3.524;2023-12-14T02:10:22;7.55;88.02
82001;SHT30;71522;50.870;3.524;2023-12-14T02:13:01;7.40;87.83
82001;SHT30;71522;50.870;3.524;2023-12-14T02:18:32;7.31;87.12
82001;SHT30;71522;50.870;3.524;2023-12-14T02:20:57;7.34;86.57
82001;SHT30;71522;50.870;3.524;2023-12-14T02:23:23;7.32;86.75
82001;SHT30;71522;50.870;3.524;2023-12-14T02:25:56;7.35;86.37
82001;SHT30;71522;50.870;3.524;2023-12-14T02:28:42;7.36;86.16
82001;SHT30;71522;50.870;3.524;2023-12-14T02:31:19;7.35;86.64
82001;SHT30;71522;50.870;3.524;2023-12-14T02:33:45;7.30;86.09
82001;SHT30;71522;50.870;3.524;2023-12-14T02:36:11;7.21;86.38
82001;SHT30;71522;50.870;3.524;2023-12-14T02:38:41;7.21;86.21
82001;SHT30;71522;50.870;3.524;2023-12-14T02:41:06;7.21;85.81
82001;SHT30;71522;50.870;3.524;2023-12-14T02:43:35;7.25;85.83
82001;SHT30;71522;50.870;3.524;2023-12-14T02:46:01;7.20;86.15
82001;SHT30;71522;50.870;3.524;2023-12-14T02:48:30;7.20;86.15
82001;SHT30;71522;50.870;3.524;2023-12-14T02:50:56;7.15;86.63
82001;SHT30;71522;50.870;3.524;2023-12-14T02:53:22;7.13;86.22
82001;SHT30;71522;50.870;3.524;2023-12-14T02:55:52;7.13;86.41
82001;SHT30;71522;50.870;3.524;2023-12-14T02:58:24;7.21;86.30
82001;SHT30;71522;50.870;3.524;2023-12-14T03:00:50;7.01;85.29
82001;SHT30;71522;50.870;3.524;2023-12-14T03:03:18;6.99;83.50
82001;SHT30;71522;50.870;3.524;2023-12-14T03:05:49;7.04;83.89
82001;SHT30;71522;50.870;3.524;2023-12-14T03:08:15;7.07;84.04
82001;SHT30;71522;50.870;3.524;2023-12-14T03:10:41;7.13;84.46
82001;SHT30;71522;50.870;3.524;2023-12-14T03:13:08;7.13;84.56
82001;SHT30;71522;50.870;3.524;2023-12-14T03:15:40;7.07;84.37
82001;SHT30;71522;50.870;3.524;2023-12-14T03:18:07;7.17;84.10
82001;SHT30;71522;50.870;3.524;2023-12-14T03:20:33;7.10;84.08
82001;SHT30;71522;50.870;3.524;2023-12-14T03:22:59;7.11;84.38
82001;SHT30;71522;50.870;3.524;2023-12-14T03:25:29;7.17;84.32
82001;SHT30;71522;50.870;3.524;2023-12-14T03:27:56;7.18;84.33
82001;SHT30;71522;50.870;3.524;2023-12-14T03:30:25;7.15;84.61
82001;SHT30;71522;50.870;3.524;2023-12-14T03:33:01;7.04;84.04
82001;SHT30;71522;50.870;3.524;2023-12-14T03:35:36;7.11;84.39
82001;SHT30;71522;50.870;3.524;2023-12-14T03:38:07;7.15;84.34
82001;SHT30;71522;50.870;3.524;2023-12-14T03:40:39;7.17;84.06
82001;SHT30;71522;50.870;3.524;2023-12-14T03:43:06;7.14;84.07
82001;SHT30;71522;50.870;3.524;2023-12-14T03:45:31;7.05;84.38
82001;SHT30;71522;50.870;3.524;2023-12-14T03:47:57;6.97;84.67
82001;SHT30;71522;50.870;3.524;2023-12-14T03:50:26;6.97;84.82
82001;SHT30;71522;50.870;3.524;2023-12-14T03:53:02;6.92;85.12
82001;SHT30;71522;50.870;3.524;2023-12-14T03:55:31;6.87;84.64
82001;SHT30;71522;50.870;3.524;2023-12-14T03:58:11;6.83;84.58
82001;SHT30;71522;50.870;3.524;2023-12-14T04:00:44;6.89;84.91
82001;SHT30;71522;50.870;3.524;2023-12-14T04:03:22;6.90;84.41
82001;SHT30;71522;50.870;3.524;2023-12-14T04:05:55;6.92;84.05
82001;SHT30;71522;50.870;3.524;2023-12-14T04:08:39;6.90;84.04
82001;SHT30;71522;50.870;3.524;2023-12-14T04:11:08;6.90;84.30
82001;SHT30;71522;50.870;3.524;2023-12-14T04:13:38;6.92;84.04
82001;SHT30;71522;50.870;3.524;2023-12-14T04:16:13;6.93;84.77
82001;SHT30;71522;50.870;3.524;2023-12-14T04:18:39;6.93;83.98
82001;SHT30;71522;50.870;3.524;2023-12-14T04:21:15;6.97;84.26
82001;SHT30;71522;50.870;3.524;2023-12-14T04:24:05;6.92;84.30
82001;SHT30;71522;50.870;3.524;2023-12-14T04:26:37;6.79;84.62
82001;SHT30;71522;50.870;3.524;2023-12-14T04:29:10;6.77;85.13
82001;SHT30;71522;50.870;3.524;2023-12-14T04:31:36;6.77;84.56
82001;SHT30;71522;50.870;3.524;2023-12-14T04:34:03;6.75;84.83
82001;SHT30;71522;50.870;3.524;2023-12-14T04:36:29;6.73;84.78
82001;SHT30;71522;50.870;3.524;2023-12-14T04:38:57;6.73;84.60
82001;SHT30;71522;50.870;3.524;2023-12-14T04:41:26;6.79;84.56
82001;SHT30;71522;50.870;3.524;2023-12-14T04:43:56;6.82;84.56
82001;SHT30;71522;50.870;3.524;2023-12-14T04:46:22;6.84;84.93
82001;SHT30;71522;50.870;3.524;2023-12-14T04:48:48;6.79;84.78
82001;SHT30;71522;50.870;3.524;2023-12-14T04:51:17;6.83;84.83
82001;SHT30;71522;50.870;3.524;2023-12-14T04:53:46;6.82;85.29
82001;SHT30;71522;50.870;3.524;2023-12-14T04:56:13;6.86;85.52
82001;SHT30;71522;50.870;3.524;2023-12-14T04:58:45;6.87;84.80
82001;SHT30;71522;50.870;3.524;2023-12-14T05:01:20;6.93;84.43
82001;SHT30;71522;50.870;3.524;2023-12-14T05:03:46;7.00;84.18
82001;SHT30;71522;50.870;3.524;2023-12-14T05:06:14;7.07;83.99
82001;SHT30;71522;50.870;3.524;2023-12-14T05:09:00;7.08;84.10
82001;SHT30;71522;50.870;3.524;2023-12-14T05:11:32;7.08;83.89
82001;SHT30;71522;50.870;3.524;2023-12-14T05:14:04;7.11;83.39
82001;SHT30;71522;50.870;3.524;2023-12-14T05:16:33;7.25;82.92
82001;SHT30;71522;50.870;3.524;2023-12-14T05:19:04;7.17;83.20
82001;SHT30;71522;50.870;3.524;2023-12-14T05:21:30;7.15;83.65
82001;SHT30;71522;50.870;3.524;2023-12-14T05:23:55;7.15;83.90
82001;SHT30;71522;50.870;3.524;2023-12-14T05:26:25;7.04;83.64
82001;SHT30;71522;50.870;3.524;2023-12-14T05:28:51;7.10;83.78
82001;SHT30;71522;50.870;3.524;2023-12-14T05:31:21;7.22;84.03
82001;SHT30;71522;50.870;3.524;2023-12-14T05:33:49;7.34;83.59
82001;SHT30;71522;50.870;3.524;2023-12-14T05:36:21;7.34;83.26
82001;SHT30;71522;50.870;3.524;2023-12-14T05:38:56;7.32;83.38
82001;SHT30;71522;50.870;3.524;2023-12-14T05:41:24;7.21;84.02
82001;SHT30;71522;50.870;3.524;2023-12-14T05:43:51;7.17;84.23
82001;SHT30;71522;50.870;3.524;2023-12-14T05:46:22;7.11;84.43
82001;SHT30;71522;50.870;3.524;2023-12-14T05:48:52;7.05;84.78
82001;SHT30;71522;50.870;3.524;2023-12-14T05:51:31;7.07;84.93
82001;SHT30;71522;50.870;3.524;2023-12-14T05:54:02;7.00;84.82
82001;SHT30;71522;50.870;3.524;2023-12-14T05:56:28;7.00;84.94
82001;SHT30;71522;50.870;3.524;2023-12-14T05:58:56;6.94;85.16
82001;SHT30;71522;50.870;3.524;2023-12-14T06:01:24;6.84;85.40
82001;SHT30;71522;50.870;3.524;2023-12-14T06:03:50;6.80;85.80
82001;SHT30;71522;50.870;3.524;2023-12-14T06:06:19;6.83;85.94
82001;SHT30;71522;50.870;3.524;2023-12-14T06:08:49;6.90;85.29
82001;SHT30;71522;50.870;3.524;2023-12-14T06:11:15;6.96;84.99
82001;SHT30;71522;50.870;3.524;2023-12-14T06:13:41;7.01;84.89
82001;SHT30;71522;50.870;3.524;2023-12-14T06:16:07;6.97;84.84
82001;SHT30;71522;50.870;3.524;2023-12-14T06:18:39;7.00;84.74
82001;SHT30;71522;50.870;3.524;2023-12-14T06:21:28;7.04;84.57
82001;SHT30;71522;50.870;3.524;2023-12-14T06:23:56;7.03;84.63
82001;SHT30;71522;50.870;3.524;2023-12-14T06:26:30;7.08;84.40
82001;SHT30;71522;50.870;3.524;2023-12-14T06:29:11;7.08;84.41
82001;SHT30;71522;50.870;3.524;2023-12-14T06:31:38;7.04;84.42
82001;SHT30;71522;50.870;3.524;2023-12-14T06:34:07;7.03;84.19
82001;SHT30;71522;50.870;3.524;2023-12-14T06:36:34;6.97;84.35
82001;SHT30;71522;50.870;3.524;2023-12-14T06:39:01;6.87;84.63
82001;SHT30;71522;50.870;3.524;2023-12-14T06:41:30;6.90;84.86
82001;SHT30;71522;50.870;3.524;2023-12-14T06:43:56;6.89;84.72
82001;SHT30;71522;50.870;3.524;2023-12-14T06:46:22;6.87;84.74
82001;SHT30;71522;50.870;3.524;2023-12-14T06:48:48;6.87;84.78
82001;SHT30;71522;50.870;3.524;2023-12-14T06:51:14;6.89;84.53
82001;SHT30;71522;50.870;3.524;2023-12-14T06:53:41;6.93;84.30
82001;SHT30;71522;50.870;3.524;2023-12-14T06:56:16;7.00;84.43
82001;SHT30;71522;50.870;3.524;2023-12-14T06:58:44;6.93;84.60
82001;SHT30;71522;50.870;3.524;2023-12-14T07:01:14;6.90;84.73
82001;SHT30;71522;50.870;3.524;2023-12-14T07:03:44;6.93;84.80
82001;SHT30;71522;50.870;3.524;2023-12-14T07:06:16;6.90;84.83
82001;SHT30;71522;50.870;3.524;2023-12-14T07:08:43;6.92;84.90
82001;SHT30;71522;50.870;3.524;2023-12-14T07:11:10;7.00;84.72
82001;SHT30;71522;50.870;3.524;2023-12-14T07:13:37;7.07;84.34
82001;SHT30;71522;50.870;3.524;2023-12-14T07:16:08;7.14;83.99
82001;SHT30;71522;50.870;3.524;2023-12-14T07:18:38;7.22;83.51
82001;SHT30;71522;50.870;3.524;2023-12-14T07:21:04;7.24;83.36
82001;SHT30;71522;50.870;3.524;2023-12-14T07:23:31;7.22;83.39
82001;SHT30;71522;50.870;3.524;2023-12-14T07:25:57;7.10;83.69
82001;SHT30;71522;50.870;3.524;2023-12-14T07:28:22;7.11;84.08
82001;SHT30;71522;50.870;3.524;2023-12-14T07:30:48;7.17;84.09
82001;SHT30;71522;50.870;3.524;2023-12-14T07:33:15;7.21;83.94
82001;SHT30;71522;50.870;3.524;2023-12-14T07:35:40;7.18;84.11
82001;SHT30;71522;50.870;3.524;2023-12-14T07:38:06;7.11;84.32
82001;SHT30;71522;50.870;3.524;2023-12-14T07:40:35;7.05;84.46
82001;SHT30;71522;50.870;3.524;2023-12-14T07:43:20;7.00;84.71
82001;SHT30;71522;50.870;3.524;2023-12-14T07:45:47;7.04;85.06
82001;SHT30;71522;50.870;3.524;2023-12-14T07:48:13;7.10;85.11
82001;SHT30;71522;50.870;3.524;2023-12-14T07:50:39;7.20;84.93
82001;SHT30;71522;50.870;3.524;2023-12-14T07:53:05;7.21;84.95
82001;SHT30;71522;50.870;3.524;2023-12-14T07:55:31;7.21;84.95
82001;SHT30;71522;50.870;3.524;2023-12-14T07:57:56;7.24;85.00
82001;SHT30;71522;50.870;3.524;2023-12-14T08:00:22;7.22;85.00
82001;SHT30;71522;50.870;3.524;2023-12-14T08:02:48;7.15;84.91
82001;SHT30;71522;50.870;3.524;2023-12-14T08:05:13;7.17;84.70
82001;SHT30;71522;50.870;3.524;2023-12-14T08:07:39;7.14;84.71
82001;SHT30;71522;50.870;3.524;2023-12-14T08:10:04;7.18;84.46
82001;SHT30;71522;50.870;3.524;2023-12-14T08:12:30;7.27;84.47
82001;SHT30;71522;50.870;3.524;2023-12-14T08:14:56;7.36;84.42
82001;SHT30;71522;50.870;3.524;2023-12-14T08:17:22;7.48;84.13
82001;SHT30;71522;50.870;3.524;2023-12-14T08:19:48;7.61;83.51
82001;SHT30;71522;50.870;3.524;2023-12-14T08:22:13;7.63;83.40
82001;SHT30;71522;50.870;3.524;2023-12-14T08:24:41;7.61;83.76
82001;SHT30;71522;50.870;3.524;2023-12-14T08:27:07;7.58;84.02
82001;SHT30;71522;50.870;3.524;2023-12-14T08:29:33;7.52;84.45
82001;SHT30;71522;50.870;3.524;2023-12-14T08:31:59;7.47;84.62
82001;SHT30;71522;50.870;3.524;2023-12-14T08:34:25;7.36;84.80
82001;SHT30;71522;50.870;3.524;2023-12-14T08:36:51;7.32;84.63
82001;SHT30;71522;50.870;3.524;2023-12-14T08:39:17;7.32;84.76
82001;SHT30;71522;50.870;3.524;2023-12-14T08:41:43;7.25;84.64
82001;SHT30;71522;50.870;3.524;2023-12-14T08:44:10;7.25;84.78
82001;SHT30;71522;50.870;3.524;2023-12-14T08:46:41;7.22;85.10
82001;SHT30;71522;50.870;3.524;2023-12-14T08:49:11;7.18;85.16
82001;SHT30;71522;50.870;3.524;2023-12-14T08:51:37;7.10;85.64
82001;SHT30;71522;50.870;3.524;2023-12-14T08:54:04;7.05;85.76
82001;SHT30;71522;50.870;3.524;2023-12-14T08:56:29;7.10;85.53
82001;SHT30;71522;50.870;3.524;2023-12-14T08:58:55;7.17;85.24
82001;SHT30;71522;50.870;3.524;2023-12-14T09:01:22;7.25;85.21
82001;SHT30;71522;50.870;3.524;2023-12-14T09:03:53;7.27;84.94
82001;SHT30;71522;50.870;3.524;2023-12-14T09:06:19;7.34;85.24
82001;SHT30;71522;50.870;3.524;2023-12-14T09:08:45;7.41;85.12
82001;SHT30;71522;50.870;3.524;2023-12-14T09:11:11;7.41;85.11
82001;SHT30;71522;50.870;3.524;2023-12-14T09:13:40;7.56;85.13
82001;SHT30;71522;50.870;3.524;2023-12-14T09:16:32;7.68;84.94
82001;SHT30;71522;50.870;3.524;2023-12-14T09:18:58;7.82;84.67
82001;SHT30;71522;50.870;3.524;2023-12-14T09:21:24;7.89;84.41
82001;SHT30;71522;50.870;3.524;2023-12-14T09:23:50;7.87;84.36
82001;SHT30;71522;50.870;3.524;2023-12-14T09:26:15;7.87;84.19
82001;SHT30;71522;50.870;3.524;2023-12-14T09:28:48;7.86;84.19
82001;SHT30;71522;50.870;3.524;2023-12-14T09:31:14;7.80;84.35
82001;SHT30;71522;50.870;3.524;2023-12-14T09:33:54;7.71;84.11
82001;SHT30;71522;50.870;3.524;2023-12-14T09:36:22;7.63;84.68
82001;SHT30;71522;50.870;3.524;2023-12-14T09:38:47;7.79;84.91
82001;SHT30;71522;50.870;3.524;2023-12-14T09:41:14;7.82;84.64
82001;SHT30;71522;50.870;3.524;2023-12-14T09:43:40;7.79;84.83
82001;SHT30;71522;50.870;3.524;2023-12-14T09:46:07;7.87;85.19
82001;SHT30;71522;50.870;3.524;2023-12-14T09:48:33;8.00;85.07
82001;SHT30;71522;50.870;3.524;2023-12-14T09:50:59;8.04;84.95
82001;SHT30;71522;50.870;3.524;2023-12-14T09:53:24;7.97;84.85
82001;SHT30;71522;50.870;3.524;2023-12-14T09:55:50;7.90;85.35
82001;SHT30;71522;50.870;3.524;2023-12-14T09:58:16;7.90;85.52
82001;SHT30;71522;50.870;3.524;2023-12-14T10:00:42;7.76;85.85
82001;SHT30;71522;50.870;3.524;2023-12-14T10:03:22;7.75;86.06
82001;SHT30;71522;50.870;3.524;2023-12-14T10:05:49;7.71;86.13
82001;SHT30;71522;50.870;3.524;2023-12-14T10:08:16;7.71;86.13
82001;SHT30;71522;50.870;3.524;2023-12-14T10:10:53;7.76;86.34
82001;SHT30;71522;50.870;3.524;2023-12-14T10:13:42;7.90;86.22
82001;SHT30;71522;50.870;3.524;2023-12-14T10:16:07;7.96;86.11
82001;SHT30;71522;50.870;3.524;2023-12-14T10:18:33;7.90;86.05
82001;SHT30;71522;50.870;3.524;2023-12-14T10:21:02;7.99;85.98
82001;SHT30;71522;50.870;3.524;2023-12-14T10:23:38;8.01;85.94
82001;SHT30;71522;50.870;3.524;2023-12-14T10:26:04;8.03;85.78
82001;SHT30;71522;50.870;3.524;2023-12-14T10:28:30;8.06;85.74
82001;SHT30;71522;50.870;3.524;2023-12-14T10:30:55;8.24;85.46
82001;SHT30;71522;50.870;3.524;2023-12-14T10:33:21;8.34;84.96
82001;SHT30;71522;50.870;3.524;2023-12-14T10:35:52;8.38;84.74
82001;SHT30;71522;50.870;3.524;2023-12-14T10:38:29;8.47;84.59
82001;SHT30;71522;50.870;3.524;2023-12-14T10:40:57;8.44;84.72
82001;SHT30;71522;50.870;3.524;2023-12-14T10:43:24;8.54;84.20
82001;SHT30;71522;50.870;3.524;2023-12-14T10:45:51;8.28;84.73
82001;SHT30;71522;50.870;3.524;2023-12-14T10:48:20;8.24;85.33
82001;SHT30;71522;50.870;3.524;2023-12-14T10:50:46;8.30;85.34
82001;SHT30;71522;50.870;3.524;2023-12-14T10:53:18;8.34;85.35
82001;SHT30;71522;50.870;3.524;2023-12-14T10:55:44;8.36;85.18
82001;SHT30;71522;50.870;3.524;2023-12-14T10:58:11;8.41;85.51
82001;SHT30;71522;50.870;3.524;2023-12-14T11:00:38;8.45;85.23
82001;SHT30;71522;50.870;3.524;2023-12-14T11:03:05;8.49;85.18
82001;SHT30;71522;50.870;3.524;2023-12-14T11:05:34;8.61;85.07
82001;SHT30;71522;50.870;3.524;2023-12-14T11:08:06;8.52;85.31
82001;SHT30;71522;50.870;3.524;2023-12-14T11:11:04;8.51;85.45
82001;SHT30;71522;50.870;3.524;2023-12-14T11:13:40;8.55;85.38
82001;SHT30;71522;50.870;3.524;2023-12-14T11:16:06;8.54;85.38
82001;SHT30;71522;50.870;3.524;2023-12-14T11:18:33;8.52;85.50
82001;SHT30;71522;50.870;3.524;2023-12-14T11:21:00;8.64;85.66
82001;SHT30;71522;50.870;3.524;2023-12-14T11:26:21;8.62;85.25
82001;SHT30;71522;50.870;3.524;2023-12-14T11:28:50;8.62;85.46
82001;SHT30;71522;50.870;3.524;2023-12-14T11:31:16;8.59;85.64
82001;SHT30;71522;50.870;3.524;2023-12-14T11:33:43;8.64;85.84
82001;SHT30;71522;50.870;3.524;2023-12-14T11:36:12;8.64;85.76
82001;SHT30;71522;50.870;3.524;2023-12-14T11:38:37;8.51;85.92
82001;SHT30;71522;50.870;3.524;2023-12-14T11:41:03;8.48;86.31
82001;SHT30;71522;50.870;3.524;2023-12-14T11:43:29;8.48;86.20
82001;SHT30;71522;50.870;3.524;2023-12-14T11:45:58;8.48;85.98
82001;SHT30;71522;50.870;3.524;2023-12-14T11:48:24;8.30;86.35
82001;SHT30;71522;50.870;3.524;2023-12-14T11:50:50;8.14;87.30
82001;SHT30;71522;50.870;3.524;2023-12-14T11:53:17;8.09;87.93
82001;SHT30;71522;50.870;3.524;2023-12-14T11:55:44;8.09;87.56
82001;SHT30;71522;50.870;3.524;2023-12-14T11:58:33;7.96;87.09
82001;SHT30;71522;50.870;3.524;2023-12-14T12:01:16;7.94;87.55
82001;SHT30;71522;50.870;3.524;2023-12-14T12:03:43;7.93;87.88
82001;SHT30;71522;50.870;3.524;2023-12-14T12:06:26;7.96;88.02
82001;SHT30;71522;50.870;3.524;2023-12-14T12:09:02;8.06;88.19
82001;SHT30;71522;50.870;3.524;2023-12-14T12:11:33;8.10;87.53
82001;SHT30;71522;50.870;3.524;2023-12-14T12:13:58;8.13;86.57
82001;SHT30;71522;50.870;3.524;2023-12-14T12:16:25;8.23;86.67
82001;SHT30;71522;50.870;3.524;2023-12-14T12:18:51;8.28;85.47
82001;SHT30;71522;50.870;3.524;2023-12-14T12:21:17;8.19;84.45
82001;SHT30;71522;50.870;3.524;2023-12-14T12:23:43;8.14;84.15
82001;SHT30;71522;50.870;3.524;2023-12-14T12:26:09;8.00;83.48
82001;SHT30;71522;50.870;3.524;2023-12-14T12:28:40;7.93;81.89
82001;SHT30;71522;50.870;3.524;2023-12-14T12:31:06;7.85;82.06
82001;SHT30;71522;50.870;3.524;2023-12-14T12:33:32;7.92;83.38
82001;SHT30;71522;50.870;3.524;2023-12-14T12:36:03;7.89;82.66
82001;SHT30;71522;50.870;3.524;2023-12-14T12:38:28;7.86;82.65
82001;SHT30;71522;50.870;3.524;2023-12-14T12:40:54;7.78;81.45
82001;SHT30;71522;50.870;3.524;2023-12-14T12:43:25;7.83;82.36
82001;SHT30;71522;50.870;3.524;2023-12-14T12:46:00;7.78;82.06
82001;SHT30;71522;50.870;3.524;2023-12-14T12:48:26;7.73;81.58
82001;SHT30;71522;50.870;3.524;2023-12-14T12:50:52;7.75;81.08
82001;SHT30;71522;50.870;3.524;2023-12-14T12:53:18;7.73;82.33
82001;SHT30;71522;50.870;3.524;2023-12-14T12:55:43;7.73;82.19
82001;SHT30;71522;50.870;3.524;2023-12-14T12:58:09;7.75;82.12
82001;SHT30;71522;50.870;3.524;2023-12-14T13:00:35;7.78;81.98
82001;SHT30;71522;50.870;3.524;2023-12-14T13:03:02;7.83;82.05
82001;SHT30;71522;50.870;3.524;2023-12-14T13:05:28;7.76;81.60
82001;SHT30;71522;50.870;3.524;2023-12-14T13:07:54;7.73;81.56
82001;SHT30;71522;50.870;3.524;2023-12-14T13:10:20;7.80;82.32
82001;SHT30;71522;50.870;3.524;2023-12-14T13:12:50;7.79;81.58
82001;SHT30;71522;50.870;3.524;2023-12-14T13:15:16;7.69;82.18
82001;SHT30;71522;50.870;3.524;2023-12-14T13:17:44;7.72;82.37
82001;SHT30;71522;50.870;3.524;2023-12-14T13:20:09;7.59;81.29
82001;SHT30;71522;50.870;3.524;2023-12-14T13:22:35;7.63;81.68
82001;SHT30;71522;50.870;3.524;2023-12-14T13:25:01;7.71;82.03
82001;SHT30;71522;50.870;3.524;2023-12-14T13:27:28;7.73;81.97
82001;SHT30;71522;50.870;3.524;2023-12-14T13:30:04;7.72;81.10
82001;SHT30;71522;50.870;3.524;2023-12-14T13:32:30;7.72;82.08
82001;SHT30;71522;50.870;3.524;2023-12-14T13:34:55;7.80;82.01
82001;SHT30;71522;50.870;3.524;2023-12-14T13:37:21;7.85;82.44
82001;SHT30;71522;50.870;3.524;2023-12-14T13:39:46;7.73;81.62
82001;SHT30;71522;50.870;3.524;2023-12-14T13:42:13;7.62;80.96
82001;SHT30;71522;50.870;3.524;2023-12-14T13:44:41;7.66;81.28
82001;SHT30;71522;50.870;3.524;2023-12-14T13:47:06;7.72;81.75
82001;SHT30;71522;50.870;3.524;2023-12-14T13:49:33;7.75;81.84
82001;SHT30;71522;50.870;3.524;2023-12-14T13:51:59;7.80;81.33
82001;SHT30;71522;50.870;3.524;2023-12-14T13:54:24;7.73;80.72
82001;SHT30;71522;50.870;3.524;2023-12-14T13:56:50;7.86;81.79
82001;SHT30;71522;50.870;3.524;2023-12-14T13:59:15;7.78;81.79
82001;SHT30;71522;50.870;3.524;2023-12-14T14:01:41;7.72;81.10
82001;SHT30;71522;50.870;3.524;2023-12-14T14:04:07;7.73;81.20
82001;SHT30;71522;50.870;3.524;2023-12-14T14:06:32;7.69;81.20
82001;SHT30;71522;50.870;3.524;2023-12-14T14:09:02;7.62;80.54
82001;SHT30;71522;50.870;3.524;2023-12-14T14:11:29;7.62;80.22
82001;SHT30;71522;50.870;3.524;2023-12-14T14:13:55;7.62;81.49
82001;SHT30;71522;50.870;3.524;2023-12-14T14:16:21;7.66;81.86
82001;SHT30;71522;50.870;3.524;2023-12-14T14:18:46;7.69;81.30
82001;SHT30;71522;50.870;3.524;2023-12-14T14:21:12;7.78;82.74
82001;SHT30;71522;50.870;3.524;2023-12-14T14:23:37;7.86;82.51
82001;SHT30;71522;50.870;3.524;2023-12-14T14:26:03;7.83;81.81
82001;SHT30;71522;50.870;3.524;2023-12-14T14:28:29;7.78;81.67
82001;SHT30;71522;50.870;3.524;2023-12-14T14:30:55;7.66;81.75
82001;SHT30;71522;50.870;3.524;2023-12-14T14:33:21;7.68;82.45
82001;SHT30;71522;50.870;3.524;2023-12-14T14:35:47;7.65;82.42
82001;SHT30;71522;50.870;3.524;2023-12-14T14:38:13;7.61;82.35
82001;SHT30;71522;50.870;3.524;2023-12-14T14:40:40;7.52;83.09
82001;SHT30;71522;50.870;3.524;2023-12-14T14:43:07;7.58;83.45
82001;SHT30;71522;50.870;3.524;2023-12-14T14:45:33;7.54;82.40
82001;SHT30;71522;50.870;3.524;2023-12-14T14:47:59;7.49;82.77
82001;SHT30;71522;50.870;3.524;2023-12-14T14:50:24;7.47;83.55
82001;SHT30;71522;50.870;3.524;2023-12-14T14:52:50;7.52;83.48
82001;SHT30;71522;50.870;3.524;2023-12-14T14:55:16;7.58;82.91
82001;SHT30;71522;50.870;3.524;2023-12-14T14:57:41;7.49;82.60
82001;SHT30;71522;50.870;3.524;2023-12-14T15:00:07;7.49;82.97
82001;SHT30;71522;50.870;3.524;2023-12-14T15:02:34;7.45;82.66
82001;SHT30;71522;50.870;3.524;2023-12-14T15:05:00;7.47;82.73
82001;SHT30;71522;50.870;3.524;2023-12-14T15:07:26;7.45;82.62
82001;SHT30;71522;50.870;3.524;2023-12-14T15:09:54;7.38;82.06
82001;SHT30;71522;50.870;3.524;2023-12-14T15:12:19;7.31;82.25
82001;SHT30;71522;50.870;3.524;2023-12-14T15:14:45;7.32;82.66
82001;SHT30;71522;50.870;3.524;2023-12-14T15:17:12;7.30;82.34
82001;SHT30;71522;50.870;3.524;2023-12-14T15:19:38;7.30;82.98
82001;SHT30;71522;50.870;3.524;2023-12-14T15:22:04;7.24;82.79
82001;SHT30;71522;50.870;3.524;2023-12-14T15:24:29;7.34;82.80
82001;SHT30;71522;50.870;3.524;2023-12-14T15:26:55;7.35;82.32
82001;SHT30;71522;50.870;3.524;2023-12-14T15:29:21;7.28;82.40
82001;SHT30;71522;50.870;3.524;2023-12-14T15:31:47;7.24;82.45
82001;SHT30;71522;50.870;3.524;2023-12-14T15:34:14;7.28;82.72
82001;SHT30;71522;50.870;3.524;2023-12-14T15:36:40;7.25;82.57
82001;SHT30;71522;50.870;3.524;2023-12-14T15:39:07;7.22;82.13
82001;SHT30;71522;50.870;3.524;2023-12-14T15:41:32;7.27;82.84
82001;SHT30;71522;50.870;3.524;2023-12-14T15:43:58;7.28;82.95
82001;SHT30;71522;50.870;3.524;2023-12-14T15:46:23;7.31;82.96
82001;SHT30;71522;50.870;3.524;2023-12-14T15:48:49;7.34;83.16
82001;SHT30;71522;50.870;3.524;2023-12-14T15:51:15;7.40;82.93
82001;SHT30;71522;50.870;3.524;2023-12-14T15:53:41;7.44;82.69
82001;SHT30;71522;50.870;3.524;2023-12-14T15:56:07;7.42;82.41
82001;SHT30;71522;50.870;3.524;2023-12-14T15:58:32;7.47;82.80
82001;SHT30;71522;50.870;3.524;2023-12-14T16:00:58;7.35;82.24